<<    Mai 2014    >>
Datum    Temp.       Tempmin      Tempmax    Taup.       Taup.min      Taup.max    Feuchte    Feuchtemin    Feuchtemax    Druck    Druckmin    Druckmax    Regen    Wind    Benmax  
  01.05.2014  15,5    11,2    07:10    21,1    16:08  8,8    3,4    18:19    11,6    00:00  68,5    34    16:18    93    07:25  1011,2    1009    15:56    1012    00:00  0,0  2,2  14,0  
  02.05.2014  12,0    8,6    21:57    13,8    15:20  8,7    4,2    20:34    11,6    06:38  81,0    67    14:17    94    06:00  1016,0    1011    00:00    1023    23:59  0,0  3,6  19,8  
  03.05.2014  10,7    5,6    06:34    16,1    16:19  -1,0    -5,5    13:30    4,4    00:00  49,0    24    15:45    77    04:16  1025,4    1023    00:00    1027    07:12  0,0  4,0  17,6  
  04.05.2014  10,1    3,2    06:04    15,9    15:31  0,5    -2,0    19:14    4,2    08:42  54,9    33    16:26    84    06:33  1024,4    1021    18:42    1027    00:13  0,0  2,0  13,0  
  05.05.2014  13,8    4,4    05:54    21,7    16:38  1,3    -0,5    00:09    3,9    08:28  47,0    24    17:34    80    06:46  1017,7    1013    18:55    1022    00:00  0,0  1,8  12,6  
  06.05.2014  15,7    11,8    04:38    20,9    17:14  6,4    0,6    04:26    14,2    21:22  56,4    38    00:00    98    23:59  1009,9    1007    18:34    1013    00:00  16,0  2,7  20,2  
  07.05.2014  13,7    10,9    07:14    18,0    14:25  9,5    5,3    20:21    13,1    01:03  78,0    49    19:22    98    00:00  1011,1    1007    00:11    1014    23:59  5,8  3,2  20,9  
  08.05.2014  12,9    10,1    01:45    17,0    13:25  7,5    4,1    12:50    13,7    23:59  71,6    45    13:30    98    23:59  1013,1    1008    21:57    1015    07:10  4,8  2,9  20,2  
  09.05.2014  15,4    11,0    23:58    19,1    15:21  7,6    1,6    18:11    13,9    00:10  63,2    34    18:08    98    00:00  1011,6    1007    00:56    1016    23:01  0,0  5,2  27,4  
  10.05.2014  12,2    9,5    03:55    14,8    17:10  8,7    4,6    00:00    12,6    20:08  79,9    61    09:37    98    20:08  1011,0    1004    19:40    1017    02:39  6,4  2,4  16,9  
  11.05.2014  12,5    9,4    04:03    17,2    15:50  4,1    1,0    10:56    8,1    00:00  58,2    36    15:52    82    00:00  1005,7    1004    13:24    1008    22:56  0,0  5,0  23,4  
  12.05.2014  12,0    9,5    06:19    17,2    15:36  5,0    2,2    00:20    8,5    19:55  63,6    42    15:46    84    23:59  1010,3    1008    00:00    1014    23:59  1,2  3,9  23,0  
  13.05.2014  11,1    7,5    23:58    14,4    13:01  7,7    3,3    23:59    11,2    12:54  80,5    62    17:33    94    11:49  1016,6    1013    06:41    1024    23:38  5,7  2,0  11,2  
  14.05.2014  10,0    4,0    05:32    17,1    15:19  4,6    1,3    15:45    8,6    08:24  71,8    36    15:10    96    06:14  1027,7    1023    00:38    1031    23:59  0,0  2,5  23,8  
  15.05.2014  9,4    3,5    06:03    14,5    14:22  4,0    2,0    14:46    5,7    10:01  71,1    46    13:55    95    07:24  1035,0    1031    00:00    1037    10:53  0,9  2,3  12,2  
  16.05.2014  12,6    4,9    05:02    19,7    16:49  4,6    1,6    20:38    9,8    08:26  63,7    34    16:08    98    07:27  1031,3    1027    23:59    1036    00:00  0,0  2,9  17,3  
  17.05.2014  13,8    6,6    05:36    20,3    17:19  6,1    4,0    00:19    9,9    08:24  62,4    38    15:25    90    07:12  1023,3    1019    18:52    1027    00:00  0,0  2,7  17,3  
  18.05.2014  16,1    7,9    05:34    23,5    15:45  6,8    4,0    20:37    11,6    08:24  59,1    31    16:04    93    07:02  1015,0    1009    19:08    1020    00:00  0,0  1,6  12,6  
  19.05.2014  19,8    13,4    01:19    27,7    17:02  7,0    2,4    19:36    10,4    10:37  48,0    22    17:34    72    06:14  1007,6    1005    18:41    1010    00:52  0,0  2,3  13,7  
  20.05.2014  21,8    15,4    02:23    29,6    15:45  8,0    4,3    16:38    11,0    10:29  43,8    22    16:09    62    02:34  1010,1    1007    00:09    1012    09:07  0,0  2,2  20,5  
  21.05.2014  21,8    16,0    05:59    26,7    18:10  8,8    7,2    03:06    11,9    09:54  45,2    30    17:31    68    06:48  1010,4    1004    23:37    1014    06:52  0,0  1,9  13,0  
  22.05.2014  20,1    14,5    23:59    28,3    15:26  9,9    4,3    15:33    14,9    21:50  56,7    22    15:33    98    23:00  1007,4    1004    00:00    1010    17:21  7,6  2,7  16,9  
  23.05.2014  16,7    14,1    05:46    21,4    16:25  12,4    7,5    20:28    15,5    09:16  78,9    44    17:21    98    02:40  1009,3    1007    01:36    1011    12:08  0,0  1,9  11,9  
  24.05.2014  16,8    13,4    02:37    22,1    16:36  7,9    2,8    19:00    11,4    04:57  58,8    32    17:40    85    04:23  1014,7    1011    00:00    1019    23:35  0,0  2,6  14,0  
  25.05.2014  17,6    10,4    05:47    24,6    16:54  5,6    2,4    18:47    8,7    08:21  49,1    25    17:13    77    06:32  1019,7    1017    19:06    1022    07:50  0,0  2,4  12,6  
  26.05.2014  17,8    13,5    05:07    22,2    17:57  10,6    6,0    00:00    14,7    15:55  63,7    47    10:42    80    14:12  1015,4    1011    23:59    1019    00:00  0,9  1,6  9,7  
  27.05.2014  15,7    14,3    23:59    17,9    00:00  14,8    13,0    00:00    16,5    16:40  94,8    73    00:00    98    05:43  1010,2    1009    02:50    1012    23:51  23,9  1,8  11,2  
  28.05.2014  15,5    13,5    05:08    18,2    16:35  11,9    9,8    16:48    14,0    00:00  80,5    59    16:39    98    00:00  1011,6    1010    02:51    1014    23:59  0,0  2,0  13,7  
  29.05.2014  14,0    11,7    23:59    15,7    11:50  11,7    10,2    21:24    12,9    08:08  86,1    74    13:16    93    04:47  1015,7    1013    06:19    1019    23:59  0,0  2,4  11,5  
  30.05.2014  14,3    10,5    23:55    19,3    16:42  5,2    2,0    15:13    10,5    01:28  57,9    35    13:57    92    00:00  1021,6    1019    00:00    1024    23:05  0,0  2,7  15,5  
  31.05.2014  15,1    7,6    04:44    22,3    15:06  5,0    1,8    17:36    8,6    08:29  55,6    27    15:35    88    06:38  1023,2    1021    17:19    1025    08:35  0,0  1,8  13,0  
 
  Gesamt  14,7  3,2            29,6            7,1  -5,5            16,5            64,5  22            98            1015,9  1004            1037            73,0  2,6  27,4  
 
  Mittelwert  14,7  9,9            19,9            7,1  3,5            10,9            64,5  40,2            89,0            1015,9  1012,3            1019,2            2,4  2,6  16,1  
  Minimum  9,4  3,2            13,8            -1,0  -5,5            3,9            43,8  22,0            62,0            1005,7  1004,0            1008,0            0,0  1,6  9,7  
  Maximum  21,8  16,0            29,6            14,8  13,0            16,5            94,8  74,0            98,0            1035,0  1031,0            1037,0            23,9  5,2  27,4  

  Heie Tage    Tmax >=30C     0  
  Sommertage    Tmax >=25C     4  
  Warme Tage    Tmax >=20C     14  
  Kalte Tage    Tmax  <10C     0  
  Frosttage    Tmin  <0C     0  
  Eistage    Tmax  <0C     0  
  Regentage > 0 mm    10  
  Regentage > 2 mm    7  
  Regentage > 10 mm    2  
  Regentage > 20 mm    1